Salesopolis, Brazil
Current Conditions -  °F | °C
As of 3:00 PM on Thursday 27 Nov 2014 (Local Time) from SBSJ Reporting Station
Broken Clouds Broken Clouds  
Wind Chill: 84°   Ceiling: 2500
Heat Index: 86°   Visibility: 6mi
Dew Point: 66°   Wind: 9mph
Humidity: 55%   Direction: 210°SSW
Pressure: 29.91"   Gusts: NA
Location:  23.53°S, 45.85°W
Report Text: SBSJ 271700Z 21008KT 9999 BKN025 29/19 Q1013
Loading
Personal Weather Stations






























Interactive Weather Map New forecast layout! Learn more

10-Day Weather Forecast

Advertisements
Track Severe Weather on mobile